Time;durP1;ratioP1;P1;durP2;ratioP2;P2;SDS_P1;SDS_P2;PMS_P1;PMS_P2;Temp;Humidity;BMP_temperature;BMP_pressure;BME280_temperature;BME280_humidity;BME280_pressure;Samples;Min_cycle;Max_cycle;Signal;HPM_P1;HPM_P2
2022/11/01 00:01:45;;;;;;;9.63;3.27;;;;;;;;;;1740400;81;21276;-49
2022/11/01 00:04:12;;;;;;;9.87;3.57;;;;;;;;;;1748853;81;21816;-49
2022/11/01 00:06:39;;;;;;;14.00;4.00;;;;;;;;;;1741154;80;21342;-49
2022/11/01 00:09:06;;;;;;;10.23;4.23;;;;;;;;;;1743675;81;21542;-48
2022/11/01 00:11:32;;;;;;;6.30;2.77;;;;;;;;;;1742138;81;21354;-49
2022/11/01 00:13:59;;;;;;;11.07;4.43;;;;;;;;;;1746078;81;21558;-49
2022/11/01 00:16:25;;;;;;;14.53;3.57;;;;;;;;;;1749147;81;21832;-49
2022/11/01 00:18:52;;;;;;;6.93;3.23;;;;;;;;;;1750582;81;21065;-49
2022/11/01 00:21:19;;;;;;;7.63;3.50;;;;;;;;;;1745484;81;21050;-49
2022/11/01 00:23:45;;;;;;;6.00;2.63;;;;;;;;;;1746650;81;21021;-48
2022/11/01 00:26:18;;;;;;;6.60;3.23;;;;;;;;;;1744141;81;21066;-49
2022/11/01 00:28:45;;;;;;;9.00;3.60;;;;;;;;;;1740120;81;21886;-49
2022/11/01 00:31:11;;;;;;;6.53;3.43;;;;;;;;;;1742925;81;21554;-49
2022/11/01 00:33:39;;;;;;;7.27;2.90;;;;;;;;;;1741242;81;21589;-48
2022/11/01 00:36:05;;;;;;;9.93;3.70;;;;;;;;;;1735940;81;21057;-49
2022/11/01 00:38:33;;;;;;;7.80;3.33;;;;;;;;;;1746415;81;20994;-48
2022/11/01 00:41:01;;;;;;;6.07;3.00;;;;;;;;;;1746993;81;21808;-49
2022/11/01 00:43:30;;;;;;;6.97;2.83;;;;;;;;;;1743101;81;20951;-49
2022/11/01 00:45:57;;;;;;;8.30;2.50;;;;;;;;;;1765037;79;21034;-48
2022/11/01 00:48:23;;;;;;;8.93;3.47;;;;;;;;;;1740758;81;21134;-48
2022/11/01 00:50:49;;;;;;;7.57;3.27;;;;;;;;;;1767262;80;21183;-48
2022/11/01 00:53:15;;;;;;;8.33;2.77;;;;;;;;;;1735129;80;21984;-48
2022/11/01 00:55:42;;;;;;;8.47;2.47;;;;;;;;;;1760541;79;21078;-48
2022/11/01 00:58:08;;;;;;;8.40;2.30;;;;;;;;;;1735117;80;21070;-48
2022/11/01 01:00:34;;;;;;;6.00;3.10;;;;;;;;;;1766519;79;21773;-48
2022/11/01 01:03:01;;;;;;;4.37;2.20;;;;;;;;;;1747680;80;20997;-48
2022/11/01 01:05:27;;;;;;;7.13;1.83;;;;;;;;;;1733693;80;21885;-48
2022/11/01 01:07:53;;;;;;;4.30;1.70;;;;;;;;;;1733986;81;21605;-48
2022/11/01 01:10:19;;;;;;;4.73;1.97;;;;;;;;;;1764675;79;21033;-48
2022/11/01 01:12:47;;;;;;;3.80;1.60;;;;;;;;;;1743837;81;21086;-48
2022/11/01 01:15:13;;;;;;;5.93;1.40;;;;;;;;;;1743658;81;21070;-48
2022/11/01 01:17:39;;;;;;;3.80;1.90;;;;;;;;;;1744738;81;21791;-47
2022/11/01 01:20:06;;;;;;;3.73;2.10;;;;;;;;;;1737632;81;21365;-48
2022/11/01 01:22:33;;;;;;;3.57;1.33;;;;;;;;;;1739312;81;22165;-48
2022/11/01 01:25:01;;;;;;;4.80;1.50;;;;;;;;;;1742450;80;21589;-48
2022/11/01 01:27:27;;;;;;;3.40;1.37;;;;;;;;;;1741159;80;21092;-48
2022/11/01 01:29:53;;;;;;;6.60;1.93;;;;;;;;;;1765925;79;21814;-48
2022/11/01 01:32:20;;;;;;;6.30;1.77;;;;;;;;;;1739724;80;21887;-48
2022/11/01 01:34:47;;;;;;;2.97;1.50;;;;;;;;;;1745511;80;21033;-48
2022/11/01 01:37:16;;;;;;;4.60;1.80;;;;;;;;;;1740017;80;21118;-48
2022/11/01 01:39:43;;;;;;;2.40;1.80;;;;;;;;;;1740110;81;21052;-48
2022/11/01 01:42:22;;;;;;;6.60;1.30;;;;;;;;;;1769255;79;21945;-48
2022/11/01 01:44:55;;;;;;;3.80;1.90;;;;;;;;;;1759126;81;21573;-47
2022/11/01 01:47:28;;;;;;;6.53;1.55;;;;;;;;;;1737220;81;21316;-47
2022/11/01 01:50:05;;;;;;;3.10;1.33;;;;;;;;;;1766053;80;21806;-48
2022/11/01 01:52:32;;;;;;;2.67;1.30;;;;;;;;;;1732162;82;21112;-47
2022/11/01 01:54:59;;;;;;;2.43;1.33;;;;;;;;;;1732690;82;21892;-47
2022/11/01 01:57:25;;;;;;;2.70;1.00;;;;;;;;;;1802898;78;21387;-47
2022/11/01 01:59:52;;;;;;;7.80;1.93;;;;;;;;;;1804504;78;21029;-47
2022/11/01 02:02:18;;;;;;;2.43;1.00;;;;;;;;;;1776277;78;21116;-47
2022/11/01 02:04:51;;;;;;;2.03;1.40;;;;;;;;;;1795709;78;21539;-47
2022/11/01 02:07:17;;;;;;;4.63;1.30;;;;;;;;;;1798908;78;21852;-47
2022/11/01 02:09:44;;;;;;;2.80;1.33;;;;;;;;;;1807449;78;21037;-47
2022/11/01 02:12:12;;;;;;;1.70;1.10;;;;;;;;;;1798225;78;21092;-47
2022/11/01 02:14:41;;;;;;;3.53;1.30;;;;;;;;;;1806553;78;21084;-47
2022/11/01 02:17:13;;;;;;;2.77;1.23;;;;;;;;;;1806406;78;21064;-47
2022/11/01 02:19:50;;;;;;;4.55;1.57;;;;;;;;;;1807380;78;21166;-48
2022/11/01 02:22:26;;;;;;;3.37;1.20;;;;;;;;;;1791283;78;21550;-48
2022/11/01 02:25:09;;;;;;;4.50;2.07;;;;;;;;;;1808857;78;21045;-47
2022/11/01 02:28:47;;;;;;;2.80;1.20;;;;;;;;;;1858099;75;27404;-47
2022/11/01 02:31:29;;;;;;;3.13;1.30;;;;;;;;;;1844154;75;21448;-47
2022/11/01 02:34:02;;;;;;;2.43;1.03;;;;;;;;;;1848499;75;22037;-46
2022/11/01 02:36:46;;;;;;;4.27;1.60;;;;;;;;;;1845866;75;21021;-47
2022/11/01 02:39:19;;;;;;;3.83;1.22;;;;;;;;;;1852088;75;21572;-47
2022/11/01 02:41:57;;;;;;;1.10;0.90;;;;;;;;;;1845005;75;21012;-47
2022/11/01 02:44:25;;;;;;;1.50;0.90;;;;;;;;;;1847975;75;21090;-48
2022/11/01 02:47:02;;;;;;;2.47;1.10;;;;;;;;;;1851596;75;21793;-47
2022/11/01 02:49:31;;;;;;;3.15;1.00;;;;;;;;;;1844968;75;21046;-47
2022/11/01 02:51:57;;;;;;;8.77;1.07;;;;;;;;;;1841678;75;21036;-47
2022/11/01 02:54:29;;;;;;;3.93;0.80;;;;;;;;;;1854861;75;21018;-47
2022/11/01 02:57:01;;;;;;;2.27;1.00;;;;;;;;;;1853735;75;21017;-47
2022/11/01 02:59:27;;;;;;;2.93;0.90;;;;;;;;;;1814011;77;21799;-48
2022/11/01 03:01:57;;;;;;;2.73;1.20;;;;;;;;;;1816460;77;21028;-48
2022/11/01 03:04:24;;;;;;;5.27;0.90;;;;;;;;;;1811885;77;22428;-47
2022/11/01 03:06:53;;;;;;;1.90;1.00;;;;;;;;;;1810289;77;21045;-47
2022/11/01 03:09:19;;;;;;;1.50;1.03;;;;;;;;;;1813617;77;21071;-47
2022/11/01 03:11:53;;;;;;;4.30;1.20;;;;;;;;;;1820049;77;21332;-47
2022/11/01 03:14:29;;;;;;;3.70;1.10;;;;;;;;;;1807896;77;21429;-47
2022/11/01 03:16:59;;;;;;;4.17;1.10;;;;;;;;;;1809652;77;21076;-47
2022/11/01 03:19:37;;;;;;;4.37;0.90;;;;;;;;;;1818300;77;20970;-47
2022/11/01 03:22:26;;;;;;;6.83;0.90;;;;;;;;;;1809872;77;21071;-47
2022/11/01 03:28:00;;;;;;;2.50;1.07;;;;;;;;;;1826244;77;21016;-46
2022/11/01 03:30:26;;;;;;;3.47;0.90;;;;;;;;;;1820807;77;20985;-46
2022/11/01 03:32:54;;;;;;;2.57;0.80;;;;;;;;;;1815435;77;21072;-46
2022/11/01 03:35:23;;;;;;;5.87;0.97;;;;;;;;;;1815231;77;21376;-46
2022/11/01 03:37:51;;;;;;;4.10;1.00;;;;;;;;;;1819247;77;21834;-46
2022/11/01 03:40:17;;;;;;;2.83;1.00;;;;;;;;;;1811965;77;21500;-46
2022/11/01 03:42:47;;;;;;;2.53;1.20;;;;;;;;;;1812569;77;21006;-46
2022/11/01 03:45:13;;;;;;;3.20;0.80;;;;;;;;;;1820331;77;20957;-46
2022/11/01 03:47:40;;;;;;;5.17;1.07;;;;;;;;;;1813191;77;21480;-46
2022/11/01 03:50:24;;;;;;;3.33;0.90;;;;;;;;;;1808382;77;21782;-46
2022/11/01 03:52:52;;;;;;;3.43;0.80;;;;;;;;;;1808384;77;20989;-46
2022/11/01 03:55:18;;;;;;;5.83;0.90;;;;;;;;;;1813614;77;21497;-47
2022/11/01 03:57:49;;;;;;;1.80;0.83;;;;;;;;;;1812881;77;21072;-47
2022/11/01 04:00:17;;;;;;;1.33;0.63;;;;;;;;;;1807740;77;21041;-46
2022/11/01 04:02:44;;;;;;;3.63;0.83;;;;;;;;;;1818833;77;22548;-46
2022/11/01 04:05:10;;;;;;;4.20;1.00;;;;;;;;;;1809330;77;21087;-46
2022/11/01 04:07:38;;;;;;;3.37;0.90;;;;;;;;;;1807572;77;21075;-46
2022/11/01 04:10:06;;;;;;;1.90;0.63;;;;;;;;;;1807764;77;21017;-46
2022/11/01 04:12:33;;;;;;;2.63;0.77;;;;;;;;;;1807898;77;21097;-46
2022/11/01 04:20:34;;;;;;;3.98;0.90;;;;;;;;;;1805649;77;21100;-47
2022/11/01 04:23:03;;;;;;;4.53;1.00;;;;;;;;;;1810898;77;21087;-47
2022/11/01 04:25:30;;;;;;;4.93;1.17;;;;;;;;;;1811210;77;20993;-47
2022/11/01 04:27:57;;;;;;;1.77;0.90;;;;;;;;;;1812871;77;21812;-46
2022/11/01 04:30:27;;;;;;;3.17;1.27;;;;;;;;;;1819059;77;21056;-47
2022/11/01 04:32:53;;;;;;;4.83;1.30;;;;;;;;;;1805666;77;21094;-46
2022/11/01 04:35:19;;;;;;;2.40;1.00;;;;;;;;;;1809674;77;21017;-46
2022/11/01 04:37:45;;;;;;;3.03;0.90;;;;;;;;;;1825556;77;21037;-46
2022/11/01 04:40:12;;;;;;;1.90;0.83;;;;;;;;;;1810751;77;21965;-46
2022/11/01 04:42:39;;;;;;;3.83;1.30;;;;;;;;;;1810465;77;21195;-46
2022/11/01 04:45:07;;;;;;;4.07;1.00;;;;;;;;;;1808981;77;21341;-46
2022/11/01 04:49:29;;;;;;;2.60;1.10;;;;;;;;;;1776111;78;27380;-47
2022/11/01 04:51:55;;;;;;;7.73;1.10;;;;;;;;;;1736246;80;21050;-47
2022/11/01 04:54:21;;;;;;;3.47;1.00;;;;;;;;;;1745788;80;21815;-47
2022/11/01 04:56:47;;;;;;;4.70;1.57;;;;;;;;;;1746618;80;21066;-47
2022/11/01 04:59:14;;;;;;;6.23;1.23;;;;;;;;;;1738474;80;21100;-47
2022/11/01 05:01:40;;;;;;;3.33;1.20;;;;;;;;;;1729661;80;21161;-47
2022/11/01 05:04:06;;;;;;;1.87;1.13;;;;;;;;;;1732327;80;21045;-47
2022/11/01 05:06:32;;;;;;;3.30;1.20;;;;;;;;;;1740580;80;21837;-44
2022/11/01 05:09:00;;;;;;;10.20;1.30;;;;;;;;;;1734522;80;21164;-45
2022/11/01 05:11:26;;;;;;;6.30;1.27;;;;;;;;;;1735205;80;21045;-44
2022/11/01 05:13:53;;;;;;;2.10;1.00;;;;;;;;;;1729506;80;21054;-45
2022/11/01 05:16:19;;;;;;;3.77;1.67;;;;;;;;;;1746031;80;21022;-45
2022/11/01 05:18:46;;;;;;;4.60;1.53;;;;;;;;;;1727776;80;21781;-45
2022/11/01 05:21:13;;;;;;;8.13;1.30;;;;;;;;;;1731135;80;21044;-45
2022/11/01 05:23:39;;;;;;;3.60;1.43;;;;;;;;;;1733029;80;21034;-45
2022/11/01 05:26:05;;;;;;;3.83;1.73;;;;;;;;;;1745869;80;21220;-45
2022/11/01 05:28:32;;;;;;;6.77;1.40;;;;;;;;;;1679468;83;21637;-45
2022/11/01 05:30:58;;;;;;;5.57;2.27;;;;;;;;;;1688852;82;21849;-45
2022/11/01 05:33:24;;;;;;;4.97;1.80;;;;;;;;;;1687976;82;21110;-47
2022/11/01 05:35:50;;;;;;;5.17;2.00;;;;;;;;;;1687637;82;21551;-47
2022/11/01 05:38:16;;;;;;;5.57;1.90;;;;;;;;;;1688344;82;21133;-48
2022/11/01 05:40:43;;;;;;;6.33;2.37;;;;;;;;;;1686514;82;21085;-48
2022/11/01 05:43:09;;;;;;;4.97;1.80;;;;;;;;;;1682332;82;21072;-48
2022/11/01 05:45:36;;;;;;;5.33;2.47;;;;;;;;;;1684536;82;21701;-48
2022/11/01 05:48:03;;;;;;;5.07;2.53;;;;;;;;;;1688430;82;21065;-48
2022/11/01 05:50:29;;;;;;;4.93;1.97;;;;;;;;;;1680949;83;21113;-48
2022/11/01 05:53:04;;;;;;;6.23;2.30;;;;;;;;;;1680065;83;21125;-48
2022/11/01 05:55:30;;;;;;;7.97;2.05;;;;;;;;;;1682408;83;22424;-48
2022/11/01 05:57:57;;;;;;;8.47;2.30;;;;;;;;;;1681377;83;21696;-48
2022/11/01 06:00:24;;;;;;;5.40;2.57;;;;;;;;;;1682919;83;21339;-48
2022/11/01 06:02:50;;;;;;;5.60;1.60;;;;;;;;;;1687127;83;21619;-48
2022/11/01 06:05:16;;;;;;;5.73;2.87;;;;;;;;;;1674998;83;21053;-48
2022/11/01 06:07:43;;;;;;;5.73;2.33;;;;;;;;;;1680714;83;21822;-49
2022/11/01 06:10:09;;;;;;;6.93;2.73;;;;;;;;;;1700484;83;21076;-49
2022/11/01 06:12:35;;;;;;;3.63;2.37;;;;;;;;;;1675274;83;21053;-49
2022/11/01 06:15:02;;;;;;;8.97;2.13;;;;;;;;;;1680504;83;21625;-49
2022/11/01 06:17:30;;;;;;;5.40;1.70;;;;;;;;;;1677149;83;21108;-49
2022/11/01 06:19:57;;;;;;;4.33;1.60;;;;;;;;;;1687561;83;21841;-49
2022/11/01 06:22:25;;;;;;;4.20;1.73;;;;;;;;;;1683082;83;21195;-50
2022/11/01 06:24:51;;;;;;;2.23;1.30;;;;;;;;;;1680923;83;21105;-49
2022/11/01 06:27:17;;;;;;;10.03;2.13;;;;;;;;;;1690503;83;21315;-49
2022/11/01 06:29:44;;;;;;;5.27;1.97;;;;;;;;;;1685411;83;21077;-50
2022/11/01 06:32:10;;;;;;;4.20;1.73;;;;;;;;;;1681142;83;22312;-50
2022/11/01 06:34:38;;;;;;;7.37;2.47;;;;;;;;;;1682224;83;21077;-50
2022/11/01 06:37:04;;;;;;;4.77;1.93;;;;;;;;;;1692286;83;21685;-49
2022/11/01 06:39:31;;;;;;;10.23;2.53;;;;;;;;;;1676937;83;21096;-49
2022/11/01 06:41:57;;;;;;;3.60;1.30;;;;;;;;;;1677265;83;21503;-49
2022/11/01 06:44:24;;;;;;;4.10;2.13;;;;;;;;;;1690172;83;22057;-49
2022/11/01 06:46:50;;;;;;;7.90;1.47;;;;;;;;;;1688808;83;21013;-49
2022/11/01 06:49:16;;;;;;;2.60;1.10;;;;;;;;;;1682304;83;21017;-48
2022/11/01 06:51:42;;;;;;;3.60;1.40;;;;;;;;;;1678280;83;21492;-49
2022/11/01 06:54:09;;;;;;;3.33;1.20;;;;;;;;;;1679700;83;21070;-48
2022/11/01 06:56:35;;;;;;;4.07;1.00;;;;;;;;;;1679101;83;21925;-48
2022/11/01 06:59:01;;;;;;;4.60;1.10;;;;;;;;;;1682334;83;20994;-48
2022/11/01 07:01:28;;;;;;;1.40;0.90;;;;;;;;;;1680323;83;21135;-48
2022/11/01 07:03:55;;;;;;;5.47;1.17;;;;;;;;;;1681473;83;21018;-48
2022/11/01 07:06:23;;;;;;;5.10;1.50;;;;;;;;;;1685954;83;21030;-48
2022/11/01 07:08:50;;;;;;;4.37;1.40;;;;;;;;;;1678993;83;21884;-49
2022/11/01 07:11:16;;;;;;;3.00;1.40;;;;;;;;;;1679874;83;20998;-49
2022/11/01 07:13:44;;;;;;;5.67;1.20;;;;;;;;;;1680077;83;21021;-48
2022/11/01 07:16:11;;;;;;;2.73;1.00;;;;;;;;;;1685975;83;21120;-48
2022/11/01 07:18:39;;;;;;;2.77;1.10;;;;;;;;;;1679235;83;21599;-48
2022/11/01 07:21:06;;;;;;;2.03;0.83;;;;;;;;;;1646568;83;21916;-48
2022/11/01 07:23:33;;;;;;;3.60;1.10;;;;;;;;;;1682840;83;21089;-48
2022/11/01 07:26:00;;;;;;;1.93;0.80;;;;;;;;;;1681946;83;21069;-48
2022/11/01 07:28:29;;;;;;;3.30;0.80;;;;;;;;;;1684014;83;21101;-48
2022/11/01 07:30:56;;;;;;;6.60;1.00;;;;;;;;;;1680023;83;21100;-48
2022/11/01 07:33:23;;;;;;;2.30;0.90;;;;;;;;;;1680607;83;21832;-48
2022/11/01 07:35:50;;;;;;;3.93;0.80;;;;;;;;;;1680183;83;21554;-48
2022/11/01 07:38:17;;;;;;;2.43;1.00;;;;;;;;;;1658710;83;21112;-49
2022/11/01 07:40:48;;;;;;;3.80;1.20;;;;;;;;;;1665388;83;21053;-49
2022/11/01 07:43:16;;;;;;;3.03;1.37;;;;;;;;;;1677025;83;21542;-48
2022/11/01 07:45:43;;;;;;;5.70;1.50;;;;;;;;;;1688620;83;22123;-48
2022/11/01 07:48:10;;;;;;;8.53;3.37;;;;;;;;;;1682034;83;21132;-48
2022/11/01 07:50:37;;;;;;;8.27;2.57;;;;;;;;;;1667190;83;21101;-48
2022/11/01 07:53:06;;;;;;;8.70;2.33;;;;;;;;;;1667343;83;21094;-48
2022/11/01 07:55:33;;;;;;;7.13;2.83;;;;;;;;;;1723761;81;21078;-49
2022/11/01 07:57:59;;;;;;;8.03;2.53;;;;;;;;;;1658174;84;21797;-48
2022/11/01 08:00:25;;;;;;;6.17;2.97;;;;;;;;;;1676738;83;21292;-48
2022/11/01 08:03:04;;;;;;;11.47;3.17;;;;;;;;;;1723061;81;21599;-48
2022/11/01 08:05:30;;;;;;;5.20;1.90;;;;;;;;;;1714078;81;21050;-48
2022/11/01 08:07:57;;;;;;;4.43;2.23;;;;;;;;;;1724504;81;21444;-48
2022/11/01 08:10:23;;;;;;;4.63;1.30;;;;;;;;;;1715254;81;21832;-49
2022/11/01 08:12:50;;;;;;;5.10;1.47;;;;;;;;;;1715588;81;21101;-48
2022/11/01 08:15:16;;;;;;;4.73;1.67;;;;;;;;;;1742771;81;21462;-48
2022/11/01 08:17:43;;;;;;;2.53;1.00;;;;;;;;;;1722954;81;21069;-48
2022/11/01 08:20:11;;;;;;;3.57;1.00;;;;;;;;;;1717606;81;21058;-48
2022/11/01 08:22:39;;;;;;;1.40;0.90;;;;;;;;;;1719887;81;23270;-49
2022/11/01 08:25:06;;;;;;;2.50;1.00;;;;;;;;;;1713141;81;21524;-48
2022/11/01 08:27:34;;;;;;;2.63;0.93;;;;;;;;;;1733870;81;21082;-48
2022/11/01 08:30:01;;;;;;;4.17;0.90;;;;;;;;;;1726732;81;21042;-48
2022/11/01 08:32:27;;;;;;;4.83;0.93;;;;;;;;;;1709757;81;21062;-48
2022/11/01 08:34:53;;;;;;;4.17;0.70;;;;;;;;;;1723689;81;21737;-47
2022/11/01 08:37:20;;;;;;;1.40;0.57;;;;;;;;;;1732099;81;21027;-48
2022/11/01 08:39:46;;;;;;;3.60;0.73;;;;;;;;;;1717965;81;21511;-48
2022/11/01 08:42:12;;;;;;;1.57;0.70;;;;;;;;;;1723358;81;21398;-48
2022/11/01 08:44:39;;;;;;;1.63;0.63;;;;;;;;;;1718507;81;20995;-48
2022/11/01 08:47:05;;;;;;;3.53;0.60;;;;;;;;;;1718101;81;21871;-48
2022/11/01 08:49:31;;;;;;;1.93;0.70;;;;;;;;;;1735237;80;21121;-48
2022/11/01 08:51:57;;;;;;;1.20;0.70;;;;;;;;;;1734815;80;21033;-47
2022/11/01 08:54:24;;;;;;;1.50;0.70;;;;;;;;;;1737641;80;21037;-48
2022/11/01 08:56:51;;;;;;;1.00;0.53;;;;;;;;;;1731998;80;21072;-48
2022/11/01 08:59:17;;;;;;;2.13;0.67;;;;;;;;;;1733874;80;22495;-48
2022/11/01 09:01:43;;;;;;;3.23;0.63;;;;;;;;;;1734576;80;21085;-48
2022/11/01 09:04:09;;;;;;;1.33;0.70;;;;;;;;;;1743510;80;21389;-48
2022/11/01 09:06:36;;;;;;;6.43;0.53;;;;;;;;;;1733448;80;21261;-47
2022/11/01 09:09:03;;;;;;;1.87;0.60;;;;;;;;;;1734070;80;21116;-48
2022/11/01 09:11:29;;;;;;;1.27;0.53;;;;;;;;;;1733093;80;22465;-48
2022/11/01 09:14:00;;;;;;;2.40;0.80;;;;;;;;;;1736451;80;21093;-47
2022/11/01 09:16:26;;;;;;;2.53;0.60;;;;;;;;;;1675880;83;21033;-48
2022/11/01 09:18:53;;;;;;;4.03;0.60;;;;;;;;;;1733031;80;21057;-48
2022/11/01 09:21:19;;;;;;;3.65;0.60;;;;;;;;;;1734876;80;21057;-48
2022/11/01 09:23:45;;;;;;;5.33;0.60;;;;;;;;;;1735728;80;21836;-49
2022/11/01 09:26:12;;;;;;;1.37;0.57;;;;;;;;;;1727248;80;21080;-48
2022/11/01 09:28:38;;;;;;;1.30;0.60;;;;;;;;;;1734716;80;21081;-48
2022/11/01 09:31:09;;;;;;;2.62;0.50;;;;;;;;;;1728836;80;21546;-49
2022/11/01 09:33:35;;;;;;;2.20;0.50;;;;;;;;;;1725675;80;21092;-49
2022/11/01 09:36:01;;;;;;;1.52;0.60;;;;;;;;;;1731725;80;21934;-48
2022/11/01 09:38:27;;;;;;;2.77;0.50;;;;;;;;;;1737232;80;21061;-48
2022/11/01 09:40:57;;;;;;;1.87;0.60;;;;;;;;;;1729849;80;21048;-48
2022/11/01 09:43:25;;;;;;;1.92;0.50;;;;;;;;;;1733103;80;21334;-48
2022/11/01 09:45:51;;;;;;;2.10;0.47;;;;;;;;;;1735123;80;21073;-48
2022/11/01 09:48:18;;;;;;;6.30;0.50;;;;;;;;;;1740795;80;21835;-48
2022/11/01 09:50:44;;;;;;;3.08;0.65;;;;;;;;;;1740234;80;21455;-49
2022/11/01 09:53:17;;;;;;;1.32;0.50;;;;;;;;;;1732543;80;21049;-48
2022/11/01 09:55:50;;;;;;;2.52;0.50;;;;;;;;;;1737916;80;21092;-48
2022/11/01 09:58:29;;;;;;;1.85;0.40;;;;;;;;;;1741411;80;21526;-48
2022/11/01 10:01:17;;;;;;;2.45;0.40;;;;;;;;;;1716446;80;21842;-48
2022/11/01 10:03:59;;;;;;;4.47;0.90;;;;;;;;;;1730190;80;21543;-49
2022/11/01 10:06:47;;;;;;;2.35;0.60;;;;;;;;;;1734091;80;21033;-48
2022/11/01 10:09:34;;;;;;;1.85;0.70;;;;;;;;;;1732197;80;21085;-49
2022/11/01 10:12:14;;;;;;;2.12;0.70;;;;;;;;;;1735055;80;21041;-49
2022/11/01 10:15:12;;;;;;;3.98;0.60;;;;;;;;;;1728742;80;21809;-49
2022/11/01 10:17:50;;;;;;;1.77;0.50;;;;;;;;;;1735554;80;21033;-48
2022/11/01 10:20:16;;;;;;;2.27;0.60;;;;;;;;;;1729967;80;21684;-49
2022/11/01 10:22:44;;;;;;;3.27;0.50;;;;;;;;;;1740136;80;21119;-49
2022/11/01 10:25:18;;;;;;;1.20;0.40;;;;;;;;;;1737996;80;21097;-48
2022/11/01 10:28:00;;;;;;;3.72;0.45;;;;;;;;;;1735964;80;21820;-49
2022/11/01 10:30:27;;;;;;;0.50;0.30;;;;;;;;;;1737838;80;21038;-49
2022/11/01 10:33:18;;;;;;;2.35;0.37;;;;;;;;;;1729806;80;21049;-48
2022/11/01 10:35:44;;;;;;;1.10;0.47;;;;;;;;;;1740528;80;21289;-48
2022/11/01 10:38:26;;;;;;;1.87;0.40;;;;;;;;;;1734631;80;21483;-48
2022/11/01 10:40:55;;;;;;;1.80;0.40;;;;;;;;;;1734772;80;21877;-48
2022/11/01 10:43:22;;;;;;;1.00;0.50;;;;;;;;;;1734788;80;21500;-49
2022/11/01 10:47:18;;;;;;;1.37;0.50;;;;;;;;;;1776141;78;22924;-48
2022/11/01 10:49:53;;;;;;;1.90;0.60;;;;;;;;;;1754314;80;21568;-48
2022/11/01 10:52:20;;;;;;;;;;;;;;;;;;1753942;80;21859;-49
2022/11/01 10:54:47;;;;;;;1.45;0.40;;;;;;;;;;1750097;80;20187;-49
2022/11/01 10:57:35;;;;;;;1.17;0.53;;;;;;;;;;1742374;80;21016;-49
2022/11/01 11:00:04;;;;;;;1.17;0.50;;;;;;;;;;1719530;81;21074;-50
2022/11/01 11:02:56;;;;;;;0.85;0.50;;;;;;;;;;1720464;81;21052;-50
2022/11/01 11:05:24;;;;;;;4.17;0.50;;;;;;;;;;1709707;81;21097;-50
2022/11/01 11:07:52;;;;;;;1.82;0.60;;;;;;;;;;1715899;81;21364;-50
2022/11/01 11:10:25;;;;;;;0.90;0.50;;;;;;;;;;1685578;81;21154;-49
2022/11/01 11:12:54;;;;;;;2.90;0.60;;;;;;;;;;1714954;81;21045;-49
2022/11/01 11:15:24;;;;;;;1.90;0.60;;;;;;;;;;1727147;81;21541;-49
2022/11/01 11:17:53;;;;;;;3.42;0.70;;;;;;;;;;1712319;81;21852;-49
2022/11/01 11:20:22;;;;;;;1.35;0.55;;;;;;;;;;1718317;81;21173;-49
2022/11/01 11:22:49;;;;;;;3.60;0.50;;;;;;;;;;1716700;81;21060;-48
2022/11/01 11:25:17;;;;;;;2.98;0.40;;;;;;;;;;1713380;81;21677;-49
2022/11/01 11:27:46;;;;;;;2.00;0.40;;;;;;;;;;1711864;81;21634;-49
2022/11/01 11:30:13;;;;;;;1.15;0.42;;;;;;;;;;1721189;81;21418;-48
2022/11/01 11:32:46;;;;;;;2.15;0.50;;;;;;;;;;1714031;81;22090;-49
2022/11/01 11:35:15;;;;;;;1.93;0.50;;;;;;;;;;1710263;81;21112;-53
2022/11/01 11:37:51;;;;;;;2.22;0.60;;;;;;;;;;1719651;81;22641;-48
2022/11/01 11:40:20;;;;;;;1.98;0.70;;;;;;;;;;1720265;81;21045;-49
2022/11/01 11:42:47;;;;;;;1.12;0.60;;;;;;;;;;1714019;81;21937;-48
2022/11/01 11:45:29;;;;;;;2.45;0.70;;;;;;;;;;1722548;81;21060;-49
2022/11/01 11:47:58;;;;;;;1.52;0.60;;;;;;;;;;1718323;81;21625;-48
2022/11/01 11:50:26;;;;;;;3.42;0.70;;;;;;;;;;1704180;82;21058;-49
2022/11/01 11:53:17;;;;;;;2.65;0.60;;;;;;;;;;1699049;82;21037;-49
2022/11/01 11:55:54;;;;;;;1.92;0.60;;;;;;;;;;1709247;82;21838;-50
2022/11/01 11:58:39;;;;;;;1.55;0.65;;;;;;;;;;1700998;82;21041;-49
2022/11/01 12:01:08;;;;;;;2.37;0.78;;;;;;;;;;1702382;82;21584;-50
2022/11/01 12:03:44;;;;;;;1.52;0.60;;;;;;;;;;1701392;82;21061;-50
2022/11/01 12:06:23;;;;;;;3.08;0.60;;;;;;;;;;1703722;82;21093;-49
2022/11/01 12:08:51;;;;;;;1.17;0.57;;;;;;;;;;1700264;82;21766;-49
2022/11/01 12:11:17;;;;;;;1.47;0.80;;;;;;;;;;1701676;82;21090;-49
2022/11/01 12:14:02;;;;;;;4.05;0.60;;;;;;;;;;1704170;82;21077;-49
2022/11/01 12:16:28;;;;;;;1.22;0.50;;;;;;;;;;1685139;82;22421;-49
2022/11/01 12:18:59;;;;;;;2.83;0.60;;;;;;;;;;1697685;82;21074;-49
2022/11/01 12:21:34;;;;;;;1.17;0.60;;;;;;;;;;1698991;82;21483;-49
2022/11/01 12:24:06;;;;;;;1.27;0.68;;;;;;;;;;1700853;82;21584;-49
2022/11/01 12:26:34;;;;;;;1.57;0.62;;;;;;;;;;1698522;82;21065;-49
2022/11/01 12:29:24;;;;;;;1.50;0.60;;;;;;;;;;1671720;82;21053;-50
2022/11/01 12:31:50;;;;;;;2.05;0.50;;;;;;;;;;1698648;82;21154;-49
2022/11/01 12:34:22;;;;;;;1.35;0.60;;;;;;;;;;1667226;84;23189;-49
2022/11/01 12:36:56;;;;;;;1.25;0.50;;;;;;;;;;1708839;82;21488;-49
2022/11/01 12:39:43;;;;;;;2.62;0.55;;;;;;;;;;1700828;82;21049;-49
2022/11/01 12:42:13;;;;;;;2.50;0.50;;;;;;;;;;1718701;82;21410;-50
2022/11/01 12:44:41;;;;;;;1.55;0.50;;;;;;;;;;1700381;82;20998;-49
2022/11/01 12:47:26;;;;;;;1.15;0.50;;;;;;;;;;1705392;82;21809;-49
2022/11/01 12:49:54;;;;;;;;;;;;;;;;;;1703897;82;20983;-50
2022/11/01 12:52:25;;;;;;;1.57;0.40;;;;;;;;;;1702901;82;21161;-50
2022/11/01 12:54:57;;;;;;;1.25;0.57;;;;;;;;;;1705063;82;20991;-50
2022/11/01 12:57:23;;;;;;;0.90;0.40;;;;;;;;;;1702334;81;20979;-50
2022/11/01 12:59:50;;;;;;;0.82;0.37;;;;;;;;;;1705345;82;21247;-50
2022/11/01 13:02:44;;;;;;;2.65;0.40;;;;;;;;;;1697419;82;21472;-50
2022/11/01 13:05:20;;;;;;;0.93;0.40;;;;;;;;;;1701784;82;21977;-50
2022/11/01 13:08:07;;;;;;;2.15;0.40;;;;;;;;;;1698627;82;20986;-50
2022/11/01 13:10:36;;;;;;;1.90;0.40;;;;;;;;;;1700917;82;20999;-50
2022/11/01 13:13:21;;;;;;;0.95;0.45;;;;;;;;;;1696818;82;21475;-50
2022/11/01 13:15:55;;;;;;;2.80;0.50;;;;;;;;;;1699173;82;21460;-50
2022/11/01 13:18:40;;;;;;;2.05;0.60;;;;;;;;;;1711606;82;20979;-50
2022/11/01 13:21:14;;;;;;;1.87;0.60;;;;;;;;;;1702826;82;20992;-50
2022/11/01 13:23:55;;;;;;;1.30;0.50;;;;;;;;;;1706668;82;20998;-50
2022/11/01 13:26:30;;;;;;;0.93;0.40;;;;;;;;;;1699363;82;21797;-50
2022/11/01 13:29:03;;;;;;;1.92;0.50;;;;;;;;;;1704397;82;21127;-50
2022/11/01 13:31:41;;;;;;;1.75;0.50;;;;;;;;;;1708847;82;21567;-49
2022/11/01 13:34:14;;;;;;;0.65;0.50;;;;;;;;;;1705793;82;21068;-53
2022/11/01 13:37:00;;;;;;;1.35;0.50;;;;;;;;;;1703224;82;20994;-49
2022/11/01 13:39:36;;;;;;;1.50;0.50;;;;;;;;;;1704178;82;22500;-49
2022/11/01 13:42:05;;;;;;;1.05;0.50;;;;;;;;;;1700408;82;20978;-49
2022/11/01 13:44:33;;;;;;;1.05;0.50;;;;;;;;;;1703934;82;21899;-50
2022/11/01 13:47:21;;;;;;;2.45;0.47;;;;;;;;;;1701493;82;21062;-49
2022/11/01 13:50:20;;;;;;;1.12;0.50;;;;;;;;;;1703984;82;21587;-49
2022/11/01 13:52:53;;;;;;;1.32;0.53;;;;;;;;;;1709726;82;23278;-49
2022/11/01 13:55:25;;;;;;;2.55;0.50;;;;;;;;;;1701906;82;21566;-49
2022/11/01 13:57:53;;;;;;;1.57;0.40;;;;;;;;;;1701918;81;20996;-50
2022/11/01 14:00:39;;;;;;;4.53;0.50;;;;;;;;;;1706652;82;20982;-49
2022/11/01 14:03:24;;;;;;;4.33;0.53;;;;;;;;;;1705334;82;20999;-49
2022/11/01 14:06:10;;;;;;;5.03;0.40;;;;;;;;;;1704732;82;21937;-50
2022/11/01 14:08:40;;;;;;;1.07;0.42;;;;;;;;;;1703628;82;21430;-49
2022/11/01 14:11:12;;;;;;;1.50;0.50;;;;;;;;;;1703570;82;21017;-50
2022/11/01 14:13:40;;;;;;;1.12;0.40;;;;;;;;;;1703351;82;21002;-49
2022/11/01 14:16:18;;;;;;;2.35;0.50;;;;;;;;;;1701008;82;21034;-49
2022/11/01 14:19:06;;;;;;;1.40;0.50;;;;;;;;;;1703214;82;21769;-49
2022/11/01 14:21:41;;;;;;;1.45;0.50;;;;;;;;;;1698291;82;21571;-49
2022/11/01 14:24:17;;;;;;;4.10;0.60;;;;;;;;;;1713985;82;20983;-49
2022/11/01 14:26:45;;;;;;;0.95;0.50;;;;;;;;;;1703352;82;21051;-49
2022/11/01 14:29:11;;;;;;;3.02;0.50;;;;;;;;;;1703004;82;21019;-49
2022/11/01 14:31:38;;;;;;;1.32;0.50;;;;;;;;;;1708690;82;22539;-49
2022/11/01 14:34:08;;;;;;;4.92;0.50;;;;;;;;;;1696837;82;21478;-49
2022/11/01 14:36:36;;;;;;;11.12;0.60;;;;;;;;;;1705849;82;21018;-49
2022/11/01 14:39:15;;;;;;;7.53;0.70;;;;;;;;;;1710046;82;21603;-49
2022/11/01 14:41:41;;;;;;;6.75;0.70;;;;;;;;;;1705117;82;22418;-49
2022/11/01 14:44:12;;;;;;;8.85;0.65;;;;;;;;;;1703462;82;22004;-49
2022/11/01 14:46:41;;;;;;;16.48;0.70;;;;;;;;;;1701149;82;21057;-49
2022/11/01 14:49:37;;;;;;;11.08;1.12;;;;;;;;;;1701144;82;21054;-49
2022/11/01 14:52:34;;;;;;;16.65;0.60;;;;;;;;;;1698990;82;21701;-49
2022/11/01 14:55:07;;;;;;;14.35;0.60;;;;;;;;;;1690410;80;72530;-62
2022/11/01 14:57:34;;;;;;;7.50;0.60;;;;;;;;;;1696181;81;21797;-61
2022/11/01 15:00:20;;;;;;;1.40;0.50;;;;;;;;;;1707893;81;21112;-62
2022/11/01 15:02:47;;;;;;;7.53;0.50;;;;;;;;;;1683853;83;21068;-62
2022/11/01 15:05:14;;;;;;;5.37;0.50;;;;;;;;;;1681674;83;21014;-62
2022/11/01 15:07:40;;;;;;;3.22;0.60;;;;;;;;;;1684052;83;21484;-65
2022/11/01 15:10:11;;;;;;;1.40;0.60;;;;;;;;;;1679213;83;21811;-61
2022/11/01 15:12:52;;;;;;;3.85;0.60;;;;;;;;;;1684569;83;21079;-63
2022/11/01 15:15:22;;;;;;;2.70;0.60;;;;;;;;;;1685059;83;21087;-62